createdAt,value
2019-01-16T00:02:52.204Z,62.56
2019-01-16T00:06:01.789Z,62.37
2019-01-16T00:09:25.707Z,62.18
2019-01-16T00:12:46.483Z,61.93
2019-01-16T00:15:58.945Z,61.72
2019-01-16T00:19:02.774Z,61.97
2019-01-16T00:22:23.079Z,61.83
2019-01-16T00:25:26.905Z,61.77
2019-01-16T00:28:30.665Z,62.01
2019-01-16T00:31:34.427Z,61.84
2019-01-16T00:34:43.718Z,61.64
2019-01-16T00:38:04.194Z,61.51
2019-01-16T00:41:07.933Z,61.46
2019-01-16T00:44:14.825Z,61.69
2019-01-16T00:47:24.555Z,61.64
2019-01-16T00:50:31.404Z,61.78
2019-01-16T00:53:52.011Z,61.75
2019-01-16T00:57:01.621Z,61.74
2019-01-16T01:00:11.710Z,61.72
2019-01-16T01:03:18.310Z,61.50
2019-01-16T01:06:22.045Z,61.51
2019-01-16T01:09:28.980Z,61.41
2019-01-16T01:12:38.878Z,61.34
2019-01-16T01:15:42.784Z,61.40
2019-01-16T01:18:58.607Z,61.46
2019-01-16T01:22:11.220Z,61.28
2019-01-16T01:25:31.553Z,61.29
2019-01-16T01:28:47.714Z,61.19
2019-01-16T01:31:51.509Z,61.25
2019-01-16T01:35:07.704Z,61.02
2019-01-16T01:38:28.166Z,60.91
2019-01-16T01:41:34.959Z,60.84
2019-01-16T01:44:44.720Z,60.85
2019-01-16T01:47:57.386Z,60.91
2019-01-16T01:51:16.617Z,60.85
2019-01-16T01:54:38.813Z,61.06
2019-01-16T01:57:42.559Z,61.42
2019-01-16T02:01:03.343Z,62.09
2019-01-16T02:04:07.114Z,62.30
2019-01-16T02:07:29.060Z,62.46
2019-01-16T02:10:41.876Z,62.48
2019-01-16T02:13:51.550Z,62.65
2019-01-16T02:16:58.152Z,62.92
2019-01-16T02:20:01.948Z,62.98
2019-01-16T02:23:24.233Z,63.08
2019-01-16T02:26:34.160Z,63.09
2019-01-16T02:29:37.856Z,63.15
2019-01-16T02:32:50.640Z,63.30
2019-01-16T02:36:11.070Z,63.27
2019-01-16T02:39:30.118Z,63.68
2019-01-16T02:42:33.921Z,64.00
2019-01-16T02:45:46.794Z,64.12
2019-01-16T02:48:56.087Z,64.08
2019-01-16T02:52:08.274Z,64.33
2019-01-16T02:55:28.390Z,64.14
2019-01-16T02:58:32.193Z,64.12
2019-01-16T03:01:45.309Z,64.42
2019-01-16T03:04:51.903Z,64.21
2019-01-16T03:07:55.630Z,64.20
2019-01-16T03:11:08.428Z,64.20
2019-01-16T03:14:14.948Z,64.47
2019-01-16T03:17:21.790Z,64.50
2019-01-16T03:20:34.332Z,64.51
2019-01-16T03:23:41.080Z,64.26
2019-01-16T03:27:01.706Z,64.27
2019-01-16T03:30:27.354Z,64.09
2019-01-16T03:33:31.226Z,64.09
2019-01-16T03:36:46.761Z,64.20
2019-01-16T03:39:50.538Z,64.22
2019-01-16T03:42:57.258Z,64.32
2019-01-16T03:46:01.081Z,64.28
2019-01-16T03:49:13.872Z,64.02
2019-01-16T03:52:32.198Z,64.03
2019-01-16T03:55:39.219Z,64.07
2019-01-16T03:58:52.086Z,64.25
2019-01-16T04:02:12.319Z,64.16
2019-01-16T04:05:16.104Z,63.99
2019-01-16T04:08:19.818Z,64.01
2019-01-16T04:11:32.909Z,64.21
2019-01-16T04:14:36.783Z,64.06
2019-01-16T04:17:40.637Z,64.18
2019-01-16T04:20:53.186Z,63.97
2019-01-16T04:23:57.075Z,63.80
2019-01-16T04:27:00.824Z,63.75
2019-01-16T04:30:25.924Z,63.81
2019-01-16T04:33:47.568Z,63.83
2019-01-16T04:36:51.378Z,64.08
2019-01-16T04:39:58.079Z,64.55
2019-01-16T04:43:10.787Z,64.48
2019-01-16T04:46:31.354Z,64.42
2019-01-16T04:49:38.237Z,64.52
2019-01-16T04:52:44.738Z,64.71
2019-01-16T04:55:49.050Z,64.78
2019-01-16T04:58:52.835Z,64.96
2019-01-16T05:02:13.307Z,65.06
2019-01-16T05:05:26.336Z,65.12
2019-01-16T05:08:33.185Z,65.32
2019-01-16T05:11:55.191Z,65.39
2019-01-16T05:15:05.037Z,65.32
2019-01-16T05:18:08.713Z,65.40
2019-01-16T05:21:29.135Z,65.42
2019-01-16T05:24:39.029Z,65.15
2019-01-16T05:27:42.819Z,65.15
2019-01-16T05:30:46.602Z,65.04
2019-01-16T05:34:06.942Z,64.93
2019-01-16T05:37:29.151Z,65.01
2019-01-16T05:40:42.072Z,65.38
2019-01-16T05:43:48.863Z,65.40
2019-01-16T05:46:52.642Z,65.29
2019-01-16T05:49:56.531Z,65.10
2019-01-16T05:53:00.350Z,65.20
2019-01-16T05:56:16.889Z,65.12
2019-01-16T05:59:20.765Z,65.00
2019-01-16T06:02:36.471Z,65.04
2019-01-16T06:05:49.253Z,64.93
2019-01-16T06:08:56.322Z,64.82
2019-01-16T06:12:16.875Z,64.87
2019-01-16T06:15:32.902Z,64.78
2019-01-16T06:18:36.631Z,64.68
2019-01-16T06:21:49.331Z,64.72
2019-01-16T06:25:01.953Z,64.61
2019-01-16T06:28:11.815Z,64.55
2019-01-16T06:31:32.441Z,64.52
2019-01-16T06:34:37.474Z,64.53
2019-01-16T06:37:59.497Z,64.75
2019-01-16T06:41:03.239Z,64.77
2019-01-16T06:44:07.046Z,64.78
2019-01-16T06:47:27.277Z,64.53
2019-01-16T06:50:34.427Z,64.28
2019-01-16T06:53:40.982Z,64.26
2019-01-16T06:57:02.010Z,64.26
2019-01-16T07:00:17.417Z,64.24
2019-01-16T07:03:37.759Z,64.22
2019-01-16T07:06:58.660Z,63.97
2019-01-16T07:10:02.444Z,63.82
2019-01-16T07:13:23.045Z,63.73
2019-01-16T07:16:43.111Z,63.43
2019-01-16T07:19:55.588Z,63.50
2019-01-16T07:23:05.196Z,63.52
2019-01-16T07:26:08.975Z,63.37
2019-01-16T07:29:15.799Z,63.23
2019-01-16T07:32:28.517Z,62.98
2019-01-16T07:35:35.358Z,62.75
2019-01-16T07:38:39.181Z,62.49
2019-01-16T07:41:42.919Z,62.18
2019-01-16T07:44:58.950Z,62.02
2019-01-16T07:48:02.667Z,61.78
2019-01-16T07:51:12.408Z,61.50
2019-01-16T07:54:16.199Z,61.16
2019-01-16T07:57:35.839Z,61.00
2019-01-16T08:00:45.403Z,60.92
2019-01-16T08:04:01.517Z,60.85
2019-01-16T08:07:05.368Z,60.81
2019-01-16T08:10:23.777Z,60.68
2019-01-16T08:13:27.488Z,60.31
2019-01-16T08:16:31.230Z,60.21
2019-01-16T08:19:37.967Z,59.74
2019-01-16T08:22:44.615Z,59.70
2019-01-16T08:25:50.940Z,59.46
2019-01-16T08:28:54.725Z,59.26
2019-01-16T08:32:09.072Z,59.16
2019-01-16T08:35:19.361Z,59.03
2019-01-16T08:38:40.097Z,59.13
2019-01-16T08:41:43.868Z,59.02
2019-01-16T08:44:59.795Z,59.04
2019-01-16T08:48:06.319Z,58.70
2019-01-16T08:51:10.439Z,58.52
2019-01-16T08:54:23.195Z,58.38
2019-01-16T08:57:43.701Z,58.47
2019-01-16T09:00:50.235Z,58.45
2019-01-16T09:03:55.364Z,58.42
2019-01-16T09:07:05.071Z,58.29
2019-01-16T09:10:11.531Z,57.98
2019-01-16T09:13:16.474Z,57.88
2019-01-16T09:16:35.487Z,57.59
2019-01-16T09:19:39.247Z,57.54
2019-01-16T09:22:45.992Z,57.73
2019-01-16T09:25:58.627Z,57.54
2019-01-16T09:29:19.059Z,57.10
2019-01-16T09:32:25.869Z,56.91
2019-01-16T09:35:38.957Z,56.79
2019-01-16T09:38:45.688Z,56.60
2019-01-16T09:41:49.558Z,56.66
2019-01-16T09:45:10.112Z,56.66
2019-01-16T09:48:16.924Z,56.42
2019-01-16T09:51:36.153Z,56.24
2019-01-16T09:54:42.634Z,55.86
2019-01-16T09:57:59.018Z,55.65
2019-01-16T10:01:02.905Z,55.24
2019-01-16T10:04:21.700Z,55.13
2019-01-16T10:07:42.409Z,54.99
2019-01-16T10:10:49.322Z,55.10
2019-01-16T10:13:59.161Z,54.85
2019-01-16T10:17:06.033Z,54.61
2019-01-16T10:20:19.938Z,54.68
2019-01-16T10:23:29.521Z,54.47
2019-01-16T10:26:33.350Z,54.23
2019-01-16T10:29:37.059Z,54.08
2019-01-16T10:32:53.708Z,53.88
2019-01-16T10:36:10.106Z,53.56
2019-01-16T10:39:30.474Z,53.63
2019-01-16T10:42:37.507Z,53.15
2019-01-16T10:45:44.244Z,53.01
2019-01-16T10:48:49.851Z,52.89
2019-01-16T10:51:59.883Z,52.55
2019-01-16T10:55:09.742Z,52.57
2019-01-16T10:58:30.355Z,52.41
2019-01-16T11:01:40.401Z,52.40
2019-01-16T11:04:50.612Z,52.84
2019-01-16T11:07:54.481Z,52.99
2019-01-16T11:11:16.151Z,52.69
2019-01-16T11:14:20.206Z,52.78
2019-01-16T11:17:26.851Z,52.79
2019-01-16T11:20:45.991Z,52.86
2019-01-16T11:24:01.746Z,53.08
2019-01-16T11:27:21.195Z,53.42
2019-01-16T11:30:41.822Z,53.41
2019-01-16T11:34:01.867Z,53.55
2019-01-16T11:37:24.038Z,53.42
2019-01-16T11:40:30.782Z,53.13
2019-01-16T11:43:37.114Z,53.71
2019-01-16T11:46:41.152Z,53.66
2019-01-16T11:49:45.010Z,53.20
2019-01-16T11:52:51.526Z,53.15
2019-01-16T11:56:10.365Z,53.31
2019-01-16T11:59:14.155Z,53.17
2019-01-16T12:02:38.678Z,53.12
2019-01-16T12:05:44.552Z,52.87
2019-01-16T12:09:03.442Z,52.79
2019-01-16T12:12:25.235Z,52.86
2019-01-16T12:15:31.919Z,52.96
2019-01-16T12:18:35.718Z,53.13
2019-01-16T12:21:39.550Z,53.17
2019-01-16T12:24:46.051Z,52.99
2019-01-16T12:27:53.006Z,52.84
2019-01-16T12:30:59.343Z,52.78
2019-01-16T12:34:19.672Z,52.54
2019-01-16T12:37:38.885Z,52.41
2019-01-16T12:41:00.999Z,52.51
2019-01-16T12:44:20.872Z,52.62
2019-01-16T12:47:33.524Z,52.47
2019-01-16T12:50:37.522Z,52.51
2019-01-16T12:53:47.287Z,52.46
2019-01-16T12:57:07.951Z,52.43
2019-01-16T13:00:15.437Z,52.61
2019-01-16T13:03:31.202Z,52.67
2019-01-16T13:06:41.957Z,52.68
2019-01-16T13:10:03.605Z,52.70
2019-01-16T13:13:07.357Z,52.77
2019-01-16T13:16:26.319Z,52.74
2019-01-16T13:19:35.086Z,52.90
2019-01-16T13:22:46.008Z,53.30
2019-01-16T13:25:51.011Z,53.25
2019-01-16T13:28:54.849Z,53.24
2019-01-16T13:32:15.337Z,53.21
2019-01-16T13:35:19.229Z,53.31
2019-01-16T13:38:32.109Z,53.42
2019-01-16T13:41:38.664Z,53.34
2019-01-16T13:44:48.196Z,53.43
2019-01-16T13:47:54.717Z,53.55
2019-01-16T13:51:10.632Z,53.67
2019-01-16T13:54:29.313Z,53.79
2019-01-16T13:57:33.200Z,54.22
2019-01-16T14:00:36.941Z,54.52
2019-01-16T14:03:49.601Z,54.60
2019-01-16T14:06:53.367Z,54.71
2019-01-16T14:10:06.019Z,54.84
2019-01-16T14:13:09.918Z,54.95
2019-01-16T14:16:29.151Z,54.91
2019-01-16T14:19:35.948Z,54.90
2019-01-16T14:22:48.996Z,55.09
2019-01-16T14:26:09.580Z,55.15
2019-01-16T14:29:18.971Z,55.26
2019-01-16T14:32:25.531Z,55.28
2019-01-16T14:35:45.571Z,55.26
2019-01-16T14:39:06.168Z,55.22
2019-01-16T14:42:22.232Z,55.38
2019-01-16T14:45:42.535Z,55.50
2019-01-16T14:48:49.355Z,55.53
2019-01-16T14:52:05.147Z,55.55
2019-01-16T14:55:19.996Z,55.46
2019-01-16T14:58:29.806Z,55.47
2019-01-16T15:01:33.622Z,55.47
2019-01-16T15:04:46.366Z,55.49
2019-01-16T15:07:56.011Z,55.53
2019-01-16T15:11:12.752Z,55.55
2019-01-16T15:14:33.602Z,55.60
2019-01-16T15:17:43.618Z,55.71
2019-01-16T15:21:04.039Z,55.93
2019-01-16T15:24:09.143Z,56.04
2019-01-16T15:27:14.461Z,56.11
2019-01-16T15:30:18.557Z,56.00
2019-01-16T15:33:22.360Z,56.05
2019-01-16T15:36:42.421Z,56.05
2019-01-16T15:39:46.137Z,56.17
2019-01-16T15:42:55.911Z,56.22
2019-01-16T15:45:59.684Z,56.37
2019-01-16T15:49:09.574Z,56.46
2019-01-16T15:52:16.160Z,56.55
2019-01-16T15:55:33.474Z,56.78
2019-01-16T15:58:37.160Z,56.98
2019-01-16T16:01:46.921Z,57.26
2019-01-16T16:04:56.222Z,57.00
2019-01-16T16:08:06.632Z,56.97
2019-01-16T16:11:10.721Z,57.12
2019-01-16T16:14:17.617Z,57.04
2019-01-16T16:17:38.562Z,56.97
2019-01-16T16:20:59.165Z,57.14
2019-01-16T16:24:02.868Z,57.29
2019-01-16T16:27:09.747Z,57.44
2019-01-16T16:30:14.549Z,57.46
2019-01-16T16:33:21.556Z,57.33
2019-01-16T16:36:42.348Z,57.32
2019-01-16T16:39:46.191Z,57.31
2019-01-16T16:43:09.052Z,57.42
2019-01-16T16:46:15.592Z,57.41
2019-01-16T16:49:22.536Z,57.40
2019-01-16T16:52:40.020Z,57.36
2019-01-16T16:55:53.417Z,57.41
2019-01-16T16:59:13.691Z,57.46
2019-01-16T17:02:28.103Z,57.56
2019-01-16T17:05:31.990Z,57.65
2019-01-16T17:08:48.122Z,57.60
2019-01-16T17:11:58.472Z,57.59
2019-01-16T17:15:11.621Z,57.67
2019-01-16T17:18:25.792Z,57.67
2019-01-16T17:21:29.726Z,57.50
2019-01-16T17:24:33.769Z,57.43
2019-01-16T17:27:37.599Z,57.26
2019-01-16T17:30:57.884Z,57.18
2019-01-16T17:34:16.748Z,57.19
2019-01-16T17:37:39.092Z,57.20
2019-01-16T17:40:49.186Z,57.16
2019-01-16T17:44:02.027Z,57.09
2019-01-16T17:47:23.200Z,56.85
2019-01-16T17:50:26.920Z,56.71
2019-01-16T17:53:33.657Z,56.72
2019-01-16T17:56:57.866Z,56.61
2019-01-16T18:00:21.982Z,56.53
2019-01-16T18:03:27.798Z,56.56
2019-01-16T18:06:42.322Z,56.68
2019-01-16T18:09:55.876Z,56.65
2019-01-16T18:13:02.396Z,56.39
2019-01-16T18:16:07.017Z,56.53
2019-01-16T18:19:14.256Z,56.66
2019-01-16T18:22:18.143Z,56.63
2019-01-16T18:25:22.880Z,56.71
2019-01-16T18:28:28.995Z,56.73
2019-01-16T18:31:42.952Z,56.88
2019-01-16T18:35:06.391Z,56.98
2019-01-16T18:38:13.230Z,57.18
2019-01-16T18:41:29.281Z,57.41
2019-01-16T18:44:39.120Z,57.49
2019-01-16T18:47:42.905Z,57.50
2019-01-16T18:50:55.236Z,57.45
2019-01-16T18:54:01.831Z,57.50
2019-01-16T18:57:24.521Z,57.67
2019-01-16T19:00:44.179Z,57.78
2019-01-16T19:04:00.583Z,57.92
2019-01-16T19:07:10.413Z,57.97
2019-01-16T19:10:30.815Z,57.94
2019-01-16T19:13:34.620Z,57.93
2019-01-16T19:16:38.434Z,57.92
2019-01-16T19:19:48.514Z,57.78
2019-01-16T19:23:07.323Z,57.76
2019-01-16T19:26:11.490Z,57.91
2019-01-16T19:29:18.052Z,58.13
2019-01-16T19:32:35.462Z,58.21
2019-01-16T19:35:43.356Z,58.31
2019-01-16T19:38:49.186Z,58.49
2019-01-16T19:41:55.567Z,58.67
2019-01-16T19:45:06.201Z,58.75
2019-01-16T19:48:31.429Z,58.67
2019-01-16T19:51:38.112Z,58.54
2019-01-16T19:55:01.577Z,58.54
2019-01-16T19:58:22.932Z,58.59
2019-01-16T20:01:29.626Z,58.72
2019-01-16T20:04:37.324Z,58.88
2019-01-16T20:07:58.094Z,58.79
2019-01-16T20:11:03.044Z,58.81
2019-01-16T20:14:14.189Z,58.82
2019-01-16T20:17:26.268Z,58.86
2019-01-16T20:20:30.625Z,58.87
2019-01-16T20:23:35.765Z,58.85
2019-01-16T20:26:48.436Z,58.79
2019-01-16T20:30:00.939Z,58.52
2019-01-16T20:33:09.191Z,58.59
2019-01-16T20:36:32.855Z,58.64
2019-01-16T20:39:39.582Z,58.55
2019-01-16T20:42:43.440Z,58.62
2019-01-16T20:46:06.987Z,58.50
2019-01-16T20:49:18.817Z,58.50
2019-01-16T20:52:24.430Z,58.93
2019-01-16T20:55:47.483Z,58.79
2019-01-16T20:58:51.310Z,58.81
2019-01-16T21:02:04.963Z,58.79
2019-01-16T21:05:12.360Z,58.79
2019-01-16T21:08:33.026Z,58.67
2019-01-16T21:11:37.281Z,58.64
2019-01-16T21:14:52.181Z,58.64
2019-01-16T21:17:56.995Z,58.50
2019-01-16T21:21:14.432Z,58.51
2019-01-16T21:24:33.601Z,58.45
2019-01-16T21:27:43.401Z,58.59
2019-01-16T21:31:01.911Z,58.62
2019-01-16T21:34:05.825Z,58.63
2019-01-16T21:37:27.751Z,58.71
2019-01-16T21:40:49.779Z,58.72
2019-01-16T21:44:07.398Z,58.74
2019-01-16T21:47:20.124Z,59.08
2019-01-16T21:50:26.861Z,59.25
2019-01-16T21:53:33.693Z,59.04
2019-01-16T21:56:37.558Z,58.76
2019-01-16T21:59:58.116Z,58.84
2019-01-16T22:03:17.227Z,58.88
2019-01-16T22:06:36.135Z,58.99
2019-01-16T22:09:51.958Z,59.20
2019-01-16T22:12:57.349Z,59.43
2019-01-16T22:16:04.295Z,59.29
2019-01-16T22:19:17.472Z,59.12
2019-01-16T22:22:21.430Z,59.02
2019-01-16T22:25:25.227Z,59.07
2019-01-16T22:28:41.396Z,59.28
2019-01-16T22:31:48.591Z,59.43
2019-01-16T22:35:09.374Z,59.52
2019-01-16T22:38:19.092Z,59.53
2019-01-16T22:41:27.165Z,59.92
2019-01-16T22:44:39.641Z,60.00
2019-01-16T22:47:43.774Z,59.75
2019-01-16T22:51:04.118Z,59.71
2019-01-16T22:54:25.869Z,59.88
2019-01-16T22:57:35.590Z,59.75
2019-01-16T23:00:42.035Z,59.91
2019-01-16T23:04:14.652Z,60.16
2019-01-16T23:07:18.403Z,60.16
2019-01-16T23:10:38.449Z,60.08
2019-01-16T23:13:42.167Z,59.83
2019-01-16T23:17:02.695Z,59.66
2019-01-16T23:20:08.949Z,59.23
2019-01-16T23:23:12.788Z,59.08
2019-01-16T23:26:19.345Z,58.90
2019-01-16T23:29:26.113Z,58.77
2019-01-16T23:32:38.800Z,58.59
2019-01-16T23:35:57.620Z,58.36
2019-01-16T23:39:03.883Z,58.30
2019-01-16T23:42:19.989Z,58.05
2019-01-16T23:45:23.698Z,57.66
2019-01-16T23:48:27.548Z,57.53
2019-01-16T23:51:37.666Z,57.46
2019-01-16T23:54:50.461Z,57.18
2019-01-16T23:57:57.037Z,57.02
